• Join FlightAware (Why Join?)
  • Login
  • US Flag 
09:35AM EDT


 

Airport Tracker/Info


-or-


 

Live Flight TrackerFlight Track Log ✈ UCA4838 ✈ 14-Jun-2013 ✈ KROC - KEWR

Flight Track Log - Related Links

Times and Time Zones

All times are in EDT time to prevent confusion due to time zone crossing. See the UCA4838 flight status page for this flight to view local times or setup timezone preferences in your user account.

Time Position Orientation Groundspeed Altitude Reporting Facility
EDT Latitude Longitude Course Direction KTS MPH feet Rate Location/Type
06:16AM 43.1036 -77.6914 206° Southwest 128 147 1,000  Level Cleveland Center
06:16AM 43.0808 -77.7067 206° Southwest 145 167 1,700 1,140 Climbing Cleveland Center
06:17AM 43.0425 -77.6686 144° Southeast 175 201 2,900 1,020 Climbing Cleveland Center
06:19AM 43.0219 -77.5928 110° East 194 223 4,000 960 Climbing Cleveland Center
06:20AM 42.9992 -77.5258 115° Southeast 194 223 5,000 1,020 Climbing Cleveland Center
06:21AM 42.9722 -77.4561 118° Southeast 194 223 6,100 1,200 Climbing Cleveland Center
06:22AM 42.9517 -77.3892 113° Southeast 194 223 7,400 1,140 Climbing Cleveland Center
06:23AM 42.9311 -77.3219 113° Southeast 194 223 8,400 960 Climbing Cleveland Center
06:24AM 42.9064 -77.2553 117° Southeast 194 223 9,400 1,020 Climbing Cleveland Center
06:25AM 42.8833 -77.1828 113° Southeast 194 223 10,500 960 Climbing Cleveland Center
06:26AM 42.8508 -77.0786 113° Southeast 195 224 11,900 900 Climbing New York Center
06:27AM 42.8297 -77.0086 112° Southeast 200 230 12,900 540 Climbing New York Center
06:28AM 42.8019 -76.9381 118° Southeast 205 236 13,000  Climbing New York Center
06:29AM 42.7625 -76.8581 124° Southeast 226 260 13,000  Level New York Center
06:30AM 42.7250 -76.7756 122° Southeast 242 278 13,000  Level New York Center
06:31AM 42.6897 -76.6947 121° Southeast 256 295 13,000  Level Boston Center
06:32AM 42.6511 -76.6100 122° Southeast 256 295 13,000  Level Boston Center
06:33AM 42.6125 -76.5286 123° Southeast 261 300 13,000  Level Boston Center
06:34AM 42.5736 -76.4442 122° Southeast 261 300 13,000  Level Boston Center
06:35AM 42.5350 -76.3572 121° Southeast 261 300 13,000  Level Boston Center
06:36AM 42.4906 -76.2558 121° Southeast 266 306 13,000  Level Boston Center
06:37AM 42.4478 -76.1658 123° Southeast 266 306 13,000  Level Boston Center
06:38AM 42.4108 -76.0764 119° Southeast 260 299 13,000  Level Boston Center
06:39AM 42.3758 -75.9956 120° Southeast 265 305 13,000  Level Boston Center
06:40AM 42.3331 -75.9033 122° Southeast 268 308 13,000  Level Boston Center
06:41AM 42.2956 -75.8283 124° Southeast 268 308 13,000  Level Boston Center
06:42AM 42.2644 -75.7508 118° Southeast 263 303 13,000  Level Boston Center
06:43AM 42.2253 -75.6703 123° Southeast 268 308 13,000  Level Boston Center
06:44AM 42.1836 -75.5867 124° Southeast 263 303 13,000  Level Boston Center
06:45AM 42.1486 -75.5008 119° Southeast 268 308 13,000  Level Boston Center
06:46AM 42.1111 -75.4181 121° Southeast 262 302 13,000  Level Boston Center
06:47AM 42.0717 -75.3350 123° Southeast 262 302 13,000 -60 Level Boston Center
06:48AM 42.0322 -75.2492 122° Southeast 262 302 12,900  Descending Boston Center
06:49AM 42.0031 -75.1614 114° Southeast 257 296 13,000  Climbing Boston Center
06:50AM 41.9717 -75.0733 116° Southeast 252 290 13,000  Level Boston Center
06:51AM 41.9342 -74.9825 119° Southeast 252 290 13,100 -420 Climbing Boston Center
06:52AM 41.8833 -74.9192 137° Southeast 252 290 12,200 -1,140 Descending Boston Center
06:53AM 41.8031 -74.8797 160° South 278 320 10,900 -1,200 Descending Boston Center
06:54AM 41.7394 -74.8300 150° Southeast 278 320 9,800 -1,440 Descending Boston Center
06:55AM 41.6594 -74.7742 152° Southeast 289 333 8,100 -1,440 Descending Boston Center
06:56AM 41.5956 -74.7331 154° Southeast 289 333 7,000 -960 Descending Boston Center
06:57AM 41.5108 -74.7050 166° South 284 327 6,200 -360 Descending Boston Center
06:59AM 41.3667 -74.6500 164° South 274 315 6,000 -120 Descending New York TRACON
07:00AM 41.2833 -74.6333 171° South 279 321 6,000  Level New York TRACON
07:01AM 41.2000 -74.6500 189° South 287 330 6,000  Level New York TRACON
07:02AM 41.1167 -74.6333 171° South 285 328 6,000  Level New York TRACON
07:03AM 41.0500 -74.6167 169° South 289 333 6,000  Level New York TRACON
07:04AM 40.9667 -74.6167 180° South 285 328 6,000  Level New York TRACON
07:05AM 40.8833 -74.6000 171° South 289 333 6,000  Level New York TRACON
07:06AM 40.8000 -74.5833 171° South 283 326 6,000 -420 Level New York TRACON
07:07AM 40.7333 -74.5667 169° South 262 302 5,200 -540 Descending New York TRACON
07:08AM 40.6667 -74.5333 159° South 251 289 5,000 -360 Descending New York TRACON
07:09AM 40.6167 -74.4833 143° Southeast 244 281 4,500 -840 Descending New York TRACON
07:10AM 40.5667 -74.4333 143° Southeast 238 274 3,400 -1,020 Descending New York TRACON
07:11AM 40.5333 -74.3667 123° Southeast 213 245 2,500 -720 Descending New York TRACON
07:12AM 40.5500 -74.3000 72° East 194 223 2,000 -240 Descending New York TRACON
07:13AM 40.5833 -74.2333 57° Northeast 186 214 2,100 -360 Climbing New York TRACON
07:14AM 40.6167 -74.2167 21° North 157 181 1,400 -780 Descending New York TRACON
07:15AM 40.6500 -74.2000 21° North 130 150 700 -720 Descending New York TRACON